Time;durP1;ratioP1;P1;durP2;ratioP2;P2;SDS_P1;SDS_P2;PMS_P1;PMS_P2;Temp;Humidity;BMP_temperature;BMP_pressure;BME280_temperature;BME280_humidity;BME280_pressure;Samples;Min_cycle;Max_cycle;Signal;HPM_P1;HPM_P2
2021/11/22 00:01:06;;;;;;;53.65;28.45;;;;;;;9.51;66.48;99633.81;5003587;28;20068;-76
2021/11/22 00:03:33;;;;;;;57.90;29.42;;;;;;;9.54;66.26;99646.75;5004201;28;20125;-75
2021/11/22 00:06:04;;;;;;;54.63;29.80;;;;;;;9.57;66.38;99641.25;5004801;28;20121;-74
2021/11/22 00:08:31;;;;;;;52.90;30.48;;;;;;;9.61;66.22;99642.66;5007458;28;20506;-74
2021/11/22 00:11:01;;;;;;;59.03;31.35;;;;;;;9.63;66.07;99647.81;5006660;28;20133;-74
2021/11/22 00:13:33;;;;;;;53.25;31.42;;;;;;;9.62;66.12;99656.72;5008302;28;20100;-75
2021/11/22 00:16:03;;;;;;;61.42;33.58;;;;;;;9.61;65.85;99650.56;5008273;28;20053;-78
2021/11/22 00:18:30;;;;;;;56.03;33.95;;;;;;;9.54;66.04;99655.50;5009996;28;20042;-75
2021/11/22 00:21:05;;;;;;;61.88;36.95;;;;;;;9.55;66.14;99664.25;5007722;28;20120;-77
2021/11/22 00:23:35;;;;;;;55.88;33.58;;;;;;;9.55;66.29;99653.69;5008446;28;20058;-75
2021/11/22 00:26:05;;;;;;;53.65;31.05;;;;;;;9.59;66.01;99656.94;5009222;28;20049;-76
2021/11/22 00:28:35;;;;;;;67.25;36.13;;;;;;;9.57;66.04;99651.78;5008851;28;20053;-75
2021/11/22 00:31:04;;;;;;;63.78;38.45;;;;;;;9.50;66.18;99666.41;5008255;28;20056;-76
2021/11/22 00:33:33;;;;;;;62.60;30.88;;;;;;;9.51;66.04;99665.47;5008282;28;20123;-75
2021/11/22 00:36:08;;;;;;;52.88;30.90;;;;;;;9.53;66.10;99664.38;5008259;28;20053;-77
2021/11/22 00:38:39;;;;;;;55.78;31.95;;;;;;;9.53;65.99;99669.63;5009855;28;20103;-76
2021/11/22 00:41:07;;;;;;;56.42;29.08;;;;;;;9.53;65.91;99666.16;5007704;28;20634;-76
2021/11/22 00:43:39;;;;;;;60.97;30.73;;;;;;;9.50;65.86;99669.03;5007997;28;20046;-76
2021/11/22 00:46:07;;;;;;;57.42;30.58;;;;;;;9.51;65.90;99676.00;5019486;28;20113;-77
2021/11/22 00:48:35;;;;;;;53.70;28.85;;;;;;;9.56;65.76;99679.94;5047535;28;20088;-77
2021/11/22 00:51:04;;;;;;;51.33;29.58;;;;;;;9.56;65.81;99687.00;5051000;28;20049;-76
2021/11/22 00:53:32;;;;;;;50.42;31.00;;;;;;;9.54;65.72;99687.16;5028153;28;20052;-75
2021/11/22 00:55:59;;;;;;;48.45;26.65;;;;;;;9.54;65.68;99692.41;5046746;28;20493;-75
2021/11/22 00:58:26;;;;;;;45.58;27.73;;;;;;;9.57;65.65;99693.97;5046920;28;20610;-76
2021/11/22 01:00:53;;;;;;;47.97;29.35;;;;;;;9.59;65.47;99696.50;5050002;28;20056;-75
2021/11/22 01:03:20;;;;;;;51.13;29.45;;;;;;;9.59;65.59;99699.94;5047080;28;20075;-75
2021/11/22 01:05:47;;;;;;;52.00;32.08;;;;;;;9.55;65.34;99702.00;5047233;28;20085;-75
2021/11/22 01:08:16;;;;;;;49.30;28.08;;;;;;;9.56;65.47;99697.53;5047618;28;20600;-74
2021/11/22 01:10:45;;;;;;;47.63;26.10;;;;;;;9.58;65.61;99693.03;5044947;28;20061;-76
2021/11/22 01:13:13;;;;;;;52.85;27.92;;;;;;;9.53;65.38;99701.28;5049903;28;20088;-76
2021/11/22 01:15:40;;;;;;;49.08;29.25;;;;;;;9.58;65.18;99698.28;5048651;28;20133;-76
2021/11/22 01:18:08;;;;;;;49.67;26.33;;;;;;;9.59;65.36;99701.75;5054044;28;20475;-76
2021/11/22 01:20:36;;;;;;;59.72;33.65;;;;;;;9.59;65.35;99705.22;5051663;28;20484;-77
2021/11/22 01:23:06;;;;;;;66.68;36.53;;;;;;;9.58;65.36;99703.56;5050214;28;20499;-74
2021/11/22 01:25:35;;;;;;;55.78;32.55;;;;;;;9.50;65.38;99709.41;5049713;28;20063;-75
2021/11/22 01:28:02;;;;;;;62.08;32.50;;;;;;;9.44;65.61;99711.69;5048944;28;20044;-76
2021/11/22 01:30:29;;;;;;;59.20;31.23;;;;;;;9.42;65.62;99714.44;5048496;28;20515;-77
2021/11/22 01:32:57;;;;;;;52.15;28.30;;;;;;;9.46;65.60;99721.16;5048075;28;20045;-76
2021/11/22 01:35:25;;;;;;;56.78;30.70;;;;;;;9.49;65.59;99720.94;5048472;28;20127;-76
2021/11/22 01:37:52;;;;;;;48.65;29.13;;;;;;;9.51;65.44;99710.28;5047900;28;20048;-77
2021/11/22 01:40:23;;;;;;;54.80;28.52;;;;;;;9.56;65.29;99714.22;5047427;28;20131;-76
2021/11/22 01:42:53;;;;;;;52.17;32.28;;;;;;;9.53;65.35;99711.00;5048818;28;20530;-77
2021/11/22 01:45:22;;;;;;;57.50;31.23;;;;;;;9.51;65.49;99720.81;5053005;28;20049;-76
2021/11/22 01:47:49;;;;;;;49.17;28.67;;;;;;;9.49;65.49;99720.06;5059240;28;20045;-77
2021/11/22 01:50:20;;;;;;;51.17;29.63;;;;;;;9.47;65.38;99722.84;5055058;28;20494;-75
2021/11/22 01:52:48;;;;;;;63.97;35.13;;;;;;;9.46;65.50;99725.59;5052079;28;20049;-77
2021/11/22 01:55:19;;;;;;;57.60;32.22;;;;;;;9.35;65.57;99721.97;5052486;28;20120;-76
2021/11/22 01:57:49;;;;;;;55.85;30.15;;;;;;;9.33;65.60;99723.88;5047050;28;20049;-74
2021/11/22 02:00:21;;;;;;;51.15;30.83;;;;;;;9.27;65.77;99726.13;5047020;28;20135;-75
2021/11/22 02:02:49;;;;;;;52.75;29.35;;;;;;;9.28;65.87;99726.03;5044148;28;20061;-74
2021/11/22 02:05:17;;;;;;;55.38;30.58;;;;;;;9.29;65.70;99734.75;5028302;28;20052;-74
2021/11/22 02:07:44;;;;;;;54.17;31.23;;;;;;;9.24;65.99;99727.22;5045662;28;20072;-76
2021/11/22 02:10:16;;;;;;;51.55;27.95;;;;;;;9.27;65.96;99726.97;5044737;28;20084;-74
2021/11/22 02:12:43;;;;;;;54.25;31.25;;;;;;;9.27;65.90;99729.59;5046643;28;20048;-73
2021/11/22 02:15:11;;;;;;;54.80;31.48;;;;;;;9.24;66.00;99736.91;5028456;28;20136;-75
2021/11/22 02:17:42;;;;;;;52.63;30.08;;;;;;;9.26;65.92;99737.66;5050413;28;20044;-76
2021/11/22 02:20:13;;;;;;;51.05;27.17;;;;;;;9.27;65.73;99742.78;5047279;28;20478;-75
2021/11/22 02:22:44;;;;;;;53.75;29.85;;;;;;;9.26;65.97;99735.84;5045474;28;20049;-75
2021/11/22 02:25:12;;;;;;;54.13;31.23;;;;;;;9.23;65.84;99743.16;5046256;28;20044;-75
2021/11/22 02:27:41;;;;;;;49.35;28.13;;;;;;;9.23;65.81;99741.34;5045349;28;20391;-76
2021/11/22 02:30:11;;;;;;;53.05;28.58;;;;;;;9.25;65.74;99742.06;5047990;28;20511;-77
2021/11/22 02:32:40;;;;;;;54.22;29.02;;;;;;;9.24;65.63;99745.66;5044296;28;20056;-73
2021/11/22 02:35:12;;;;;;;56.72;31.60;;;;;;;9.12;66.03;99757.13;5044676;28;20710;-75
2021/11/22 02:37:39;;;;;;;53.05;30.58;;;;;;;9.07;66.02;99757.44;5045260;28;20075;-75
2021/11/22 02:40:07;;;;;;;50.50;30.42;;;;;;;9.04;66.13;99762.09;5043294;28;20051;-75
2021/11/22 02:42:40;;;;;;;51.35;31.05;;;;;;;9.03;65.66;99763.91;5045893;28;20049;-75
2021/11/22 02:45:09;;;;;;;48.15;28.25;;;;;;;8.98;66.12;99769.53;5028119;28;20080;-75
2021/11/22 02:47:37;;;;;;;50.72;28.67;;;;;;;9.04;66.11;99767.38;5045631;28;20132;-75
2021/11/22 02:50:04;;;;;;;55.63;32.25;;;;;;;8.97;66.15;99773.09;5027242;28;20554;-76
2021/11/22 02:52:33;;;;;;;52.35;28.45;;;;;;;9.02;66.14;99769.28;5026783;28;20045;-74
2021/11/22 02:55:00;;;;;;;45.05;24.63;;;;;;;9.05;66.10;99771.69;5045004;28;20049;-75
2021/11/22 02:57:28;;;;;;;45.75;27.45;;;;;;;9.05;65.93;99775.16;5045838;28;20545;-77
2021/11/22 02:59:55;;;;;;;50.28;28.55;;;;;;;9.05;65.75;99775.16;5045203;28;20075;-76
2021/11/22 03:02:22;;;;;;;53.60;27.70;;;;;;;9.03;65.85;99781.50;5045499;28;20066;-76
2021/11/22 03:04:49;;;;;;;48.75;25.95;;;;;;;9.03;65.84;99792.06;5045905;28;20048;-76
2021/11/22 03:07:18;;;;;;;48.50;28.55;;;;;;;9.05;66.04;99790.13;5044922;28;20132;-76
2021/11/22 03:09:47;;;;;;;44.55;28.80;;;;;;;9.02;65.98;99793.00;5044123;28;20227;-77
2021/11/22 03:12:14;;;;;;;51.70;25.83;;;;;;;8.99;65.99;99802.81;5010959;28;20379;-76
2021/11/22 03:14:43;;;;;;;44.95;26.25;;;;;;;8.99;66.04;99794.06;5044998;28;20041;-77
2021/11/22 03:17:10;;;;;;;50.28;32.97;;;;;;;8.89;66.20;99795.69;5045818;28;20055;-77
2021/11/22 03:19:37;;;;;;;52.17;30.75;;;;;;;8.82;66.30;99792.66;5046756;28;20132;-76
2021/11/22 03:22:04;;;;;;;49.17;29.65;;;;;;;8.78;66.04;99793.81;5046251;28;20057;-75
2021/11/22 03:24:32;;;;;;;48.05;25.02;;;;;;;8.86;65.98;99806.44;5046114;28;20045;-76
2021/11/22 03:27:01;;;;;;;50.15;29.15;;;;;;;8.89;65.98;99806.22;5045023;28;20075;-76
2021/11/22 03:29:28;;;;;;;50.38;29.20;;;;;;;8.83;65.91;99807.50;5045783;28;20496;-76
2021/11/22 03:31:54;;;;;;;49.05;28.63;;;;;;;8.90;65.96;99811.38;5044811;28;20658;-76
2021/11/22 03:34:21;;;;;;;46.65;24.95;;;;;;;8.90;65.94;99819.28;5044398;28;20063;-76
2021/11/22 03:36:51;;;;;;;63.45;32.63;;;;;;;8.92;65.94;99813.91;5045276;28;20049;-76
2021/11/22 03:39:25;;;;;;;59.40;30.13;;;;;;;8.92;65.84;99817.38;5043410;28;20504;-75
2021/11/22 03:41:55;;;;;;;66.55;35.53;;;;;;;8.91;65.89;99817.47;5044725;28;20505;-77
2021/11/22 03:44:24;;;;;;;58.08;33.80;;;;;;;8.80;65.93;99813.00;5049846;28;20049;-76
2021/11/22 03:46:54;;;;;;;58.30;31.00;;;;;;;8.77;66.05;99816.69;5048916;28;20128;-75
2021/11/22 03:49:22;;;;;;;47.45;27.52;;;;;;;8.79;65.98;99825.31;5048665;28;20567;-76
2021/11/22 03:51:49;;;;;;;65.38;31.27;;;;;;;8.80;66.08;99820.88;5047892;28;20538;-77
2021/11/22 03:54:17;;;;;;;63.63;34.67;;;;;;;8.76;66.14;99817.63;5048188;28;20045;-76
2021/11/22 03:56:45;;;;;;;54.50;27.52;;;;;;;8.81;66.02;99827.84;5048204;28;20119;-77
2021/11/22 03:59:12;;;;;;;56.10;27.65;;;;;;;8.79;65.99;99832.38;5048633;28;20053;-76
2021/11/22 04:01:41;;;;;;;52.45;29.02;;;;;;;8.80;65.86;99839.31;5048649;28;20114;-77
2021/11/22 04:04:08;;;;;;;63.70;31.42;;;;;;;8.79;65.92;99835.03;5048694;28;20124;-77
2021/11/22 04:06:36;;;;;;;66.30;32.88;;;;;;;8.81;65.87;99833.13;5032895;28;20048;-76
2021/11/22 04:09:04;;;;;;;55.45;28.23;;;;;;;8.80;65.80;99839.31;5049329;28;20053;-77
2021/11/22 04:11:32;;;;;;;49.80;28.50;;;;;;;8.78;65.90;99841.22;5047227;28;20041;-78
2021/11/22 04:13:59;;;;;;;64.75;29.48;;;;;;;8.76;65.95;99843.13;5048646;28;20503;-76
2021/11/22 04:16:26;;;;;;;55.78;30.98;;;;;;;8.73;65.98;99841.56;5048667;28;20041;-75
2021/11/22 04:18:54;;;;;;;60.85;30.80;;;;;;;8.70;66.03;99854.13;5048834;28;20430;-73
2021/11/22 04:21:24;;;;;;;62.85;32.20;;;;;;;8.68;66.00;99846.31;5047544;28;20053;-75
2021/11/22 04:23:55;;;;;;;59.85;32.85;;;;;;;8.63;66.33;99852.88;5047378;28;20691;-74
2021/11/22 04:26:22;;;;;;;49.05;28.48;;;;;;;8.61;66.21;99855.59;5047609;28;20040;-75
2021/11/22 04:28:49;;;;;;;62.05;29.75;;;;;;;8.63;66.23;99852.88;5047472;28;20067;-74
2021/11/22 04:31:17;;;;;;;61.00;31.77;;;;;;;8.61;66.30;99868.75;5029958;28;20124;-74
2021/11/22 04:33:44;;;;;;;57.60;30.83;;;;;;;8.64;66.28;99867.69;5048745;28;20056;-75
2021/11/22 04:36:13;;;;;;;58.47;30.42;;;;;;;8.67;66.04;99868.31;5047715;28;20049;-74
2021/11/22 04:38:40;;;;;;;59.42;28.83;;;;;;;8.65;66.18;99866.75;5048776;28;20511;-76
2021/11/22 04:41:07;;;;;;;53.20;30.20;;;;;;;8.72;66.27;99881.16;5045563;28;20094;-73
2021/11/22 04:43:34;;;;;;;51.67;28.30;;;;;;;8.77;65.91;99873.78;5047518;28;20049;-75
2021/11/22 04:46:02;;;;;;;43.60;22.70;;;;;;;8.78;65.99;99876.28;5047545;28;20045;-73
2021/11/22 04:48:29;;;;;;;49.97;28.15;;;;;;;8.81;65.85;99880.50;5048231;28;20045;-74
2021/11/22 04:50:56;;;;;;;63.05;31.38;;;;;;;8.70;65.94;99886.53;5046944;28;20045;-73
2021/11/22 04:53:24;;;;;;;58.38;33.22;;;;;;;8.55;66.42;99893.72;5045478;28;20045;-75
2021/11/22 04:55:52;;;;;;;62.33;37.78;;;;;;;8.29;66.94;99892.03;5046754;28;20049;-74
2021/11/22 04:58:19;;;;;;;58.60;34.17;;;;;;;8.13;67.62;99906.22;5047455;28;20087;-76
2021/11/22 05:00:47;;;;;;;58.00;30.95;;;;;;;8.11;67.95;99912.53;5047280;28;20056;-74
2021/11/22 05:03:14;;;;;;;66.30;36.80;;;;;;;8.02;68.46;99914.00;5047507;28;20040;-73
2021/11/22 05:05:41;;;;;;;54.60;32.38;;;;;;;7.92;68.69;99919.00;5048431;28;20124;-74
2021/11/22 05:08:10;;;;;;;34.75;20.52;;;;;;;7.81;68.86;99908.38;5046796;28;20049;-74
2021/11/22 05:10:41;;;;;;;40.50;26.15;;;;;;;7.76;68.89;99916.59;5044962;28;20103;-76
2021/11/22 05:13:10;;;;;;;50.58;26.42;;;;;;;7.74;68.90;99921.09;5046287;28;20057;-75
2021/11/22 05:15:38;;;;;;;47.50;24.98;;;;;;;7.76;68.97;99927.09;5047252;28;20168;-73
2021/11/22 05:18:08;;;;;;;48.05;26.15;;;;;;;7.76;69.08;99923.59;5046612;28;20425;-76
2021/11/22 05:20:36;;;;;;;48.60;29.15;;;;;;;7.72;69.30;99922.13;5047240;28;20080;-77
2021/11/22 05:23:05;;;;;;;41.58;23.88;;;;;;;7.75;69.43;99925.41;5047278;28;20488;-72
2021/11/22 05:25:33;;;;;;;49.58;26.52;;;;;;;7.71;69.52;99923.94;5046153;28;20041;-76
2021/11/22 05:28:02;;;;;;;53.30;31.63;;;;;;;7.69;69.80;99924.97;5050649;28;20129;-77
2021/11/22 05:30:29;;;;;;;53.38;28.90;;;;;;;7.67;69.95;99932.97;5055019;28;20088;-75
2021/11/22 05:32:58;;;;;;;54.33;32.40;;;;;;;7.61;70.05;99936.81;5049299;28;20049;-75
2021/11/22 05:35:27;;;;;;;60.25;37.13;;;;;;;7.56;70.27;99935.44;5052915;28;20045;-75
2021/11/22 05:37:55;;;;;;;63.47;36.75;;;;;;;7.58;70.28;99944.94;5057276;28;20120;-80
2021/11/22 05:40:22;;;;;;;69.72;39.70;;;;;;;7.65;70.03;99950.59;5055498;28;20045;-78
2021/11/22 05:42:51;;;;;;;64.20;35.30;;;;;;;7.66;70.05;99949.66;5048593;28;20076;-76
2021/11/22 05:45:20;;;;;;;64.63;36.67;;;;;;;7.65;70.13;99958.50;5050404;28;20102;-78
2021/11/22 05:47:47;;;;;;;68.70;34.17;;;;;;;7.60;70.08;99961.44;5046621;28;20144;-77
2021/11/22 05:50:15;;;;;;;62.25;34.60;;;;;;;7.64;70.02;99959.44;5039637;28;20229;-78
2021/11/22 05:52:49;;;;;;;51.53;29.02;;;;;;;7.74;69.83;99954.41;5012187;28;20110;-76
2021/11/22 05:55:22;;;;;;;65.95;37.10;;;;;;;7.77;69.68;99964.75;5029508;28;20071;-80
2021/11/22 05:57:49;;;;;;;61.90;33.17;;;;;;;7.80;69.61;99961.94;5033072;28;20057;-78
2021/11/22 06:00:17;;;;;;;80.75;39.08;;;;;;;7.78;69.65;99972.53;5027460;28;20096;-73
2021/11/22 06:02:46;;;;;;;76.15;42.92;;;;;;;7.72;69.93;99979.97;5034760;28;20498;-74
2021/11/22 06:05:13;;;;;;;60.70;33.60;;;;;;;7.68;70.17;99981.97;5038025;28;20391;-73
2021/11/22 06:07:39;;;;;;;64.60;34.17;;;;;;;7.74;69.79;99981.56;5024964;28;20060;-72
2021/11/22 06:10:08;;;;;;;71.90;32.55;;;;;;;7.78;69.42;99988.31;5023193;28;20396;-75
2021/11/22 06:12:35;;;;;;;58.92;33.92;;;;;;;7.75;69.80;99991.13;4996486;28;20136;-78
2021/11/22 06:15:02;;;;;;;65.25;31.75;;;;;;;7.79;69.73;99997.88;5026554;28;20606;-84
2021/11/22 06:17:29;;;;;;;57.35;31.13;;;;;;;7.82;69.72;99996.84;5029221;28;20110;-74
2021/11/22 06:19:58;;;;;;;68.43;35.20;;;;;;;7.86;69.48;100014.09;5025770;28;20111;-78
2021/11/22 06:22:25;;;;;;;56.35;27.98;;;;;;;7.94;69.35;100018.84;5027798;28;20085;-74
2021/11/22 06:24:52;;;;;;;64.72;28.80;;;;;;;8.01;69.40;100023.63;5026855;28;20140;-74
2021/11/22 06:27:20;;;;;;;51.28;27.70;;;;;;;8.06;69.11;100030.38;5027290;28;20042;-76
2021/11/22 06:29:50;;;;;;;55.38;28.33;;;;;;;8.08;69.16;100031.94;5029674;28;20055;-81
2021/11/22 06:32:17;;;;;;;66.07;34.88;;;;;;;8.03;68.97;100028.75;5033376;28;20057;-75
2021/11/22 06:34:45;;;;;;;66.28;33.10;;;;;;;8.03;69.21;100034.88;5036962;28;20048;-74
2021/11/22 06:37:13;;;;;;;62.60;32.08;;;;;;;8.04;69.08;100035.72;5044203;28;20120;-74
2021/11/22 06:39:40;;;;;;;59.22;31.02;;;;;;;8.08;69.13;100031.09;5033405;28;20048;-73
2021/11/22 06:42:09;;;;;;;61.50;27.88;;;;;;;8.11;68.86;100031.75;5025061;28;20166;-75
2021/11/22 06:44:36;;;;;;;60.00;30.27;;;;;;;8.10;68.92;100040.56;5028512;28;20043;-70
2021/11/22 06:47:03;;;;;;;51.17;28.20;;;;;;;8.11;68.94;100039.63;5026002;28;20052;-75
2021/11/22 06:49:31;;;;;;;58.50;31.15;;;;;;;8.15;68.84;100043.75;5028286;28;20080;-79
2021/11/22 06:51:59;;;;;;;56.22;32.53;;;;;;;8.08;69.01;100042.47;5027287;28;20141;-76
2021/11/22 06:54:27;;;;;;;52.13;32.92;;;;;;;8.01;68.96;100038.53;5037133;28;20277;-72
2021/11/22 06:56:55;;;;;;;46.50;25.15;;;;;;;8.00;68.69;100050.03;5040043;28;20585;-71
2021/11/22 06:59:22;;;;;;;49.13;26.63;;;;;;;8.00;68.68;100048.22;5054457;28;20076;-79
2021/11/22 07:01:49;;;;;;;49.08;26.20;;;;;;;8.03;68.65;100049.81;5046908;28;20223;-76
2021/11/22 07:04:16;;;;;;;48.10;26.25;;;;;;;8.05;68.49;100058.47;5033539;28;20076;-74
2021/11/22 07:06:43;;;;;;;63.15;29.95;;;;;;;8.08;68.41;100058.25;5034382;28;20042;-71
2021/11/22 07:09:10;;;;;;;47.97;28.48;;;;;;;8.05;68.53;100063.72;5036699;28;20055;-78
2021/11/22 07:11:39;;;;;;;43.03;25.23;;;;;;;8.03;68.35;100060.31;5033673;28;20049;-78
2021/11/22 07:14:07;;;;;;;40.22;21.92;;;;;;;8.10;68.47;100061.63;5038848;28;20113;-75
2021/11/22 07:16:38;;;;;;;48.55;26.10;;;;;;;8.16;68.06;100066.50;5037031;28;20504;-77
2021/11/22 07:19:08;;;;;;;52.47;28.27;;;;;;;8.20;68.13;100069.75;5011549;28;20081;-76
2021/11/22 07:21:37;;;;;;;47.17;25.98;;;;;;;8.28;67.90;100069.25;5036043;28;20084;-79
2021/11/22 07:24:06;;;;;;;48.47;30.40;;;;;;;8.28;68.11;100074.50;5002288;28;20053;-76
2021/11/22 07:26:33;;;;;;;32.85;18.27;;;;;;;8.35;67.85;100079.25;5030924;28;20049;-75
2021/11/22 07:29:02;;;;;;;28.40;15.60;;;;;;;8.38;67.75;100081.69;5030792;28;20053;-78
2021/11/22 07:31:29;;;;;;;28.48;14.70;;;;;;;8.37;67.62;100081.81;5029395;28;20140;-78
2021/11/22 07:33:56;;;;;;;33.15;16.08;;;;;;;8.37;67.76;100084.44;5028455;28;20063;-77
2021/11/22 07:36:25;;;;;;;29.60;15.82;;;;;;;8.50;67.58;100089.75;5032950;28;20049;-81
2021/11/22 07:38:52;;;;;;;29.48;14.65;;;;;;;8.49;67.58;100099.44;5030298;28;20080;-77
2021/11/22 07:41:20;;;;;;;26.70;13.55;;;;;;;8.43;67.61;100097.25;5027504;28;20430;-79
2021/11/22 07:43:47;;;;;;;23.33;14.15;;;;;;;8.43;67.70;100105.13;5028803;28;20407;-74
2021/11/22 07:46:15;;;;;;;26.38;14.02;;;;;;;8.53;67.61;100106.19;5029118;28;20128;-74
2021/11/22 07:48:42;;;;;;;27.95;15.73;;;;;;;8.71;67.33;100111.19;5031441;28;20041;-74
2021/11/22 07:51:12;;;;;;;26.27;13.13;;;;;;;8.86;66.98;100104.91;5027667;28;20069;-76
2021/11/22 07:53:39;;;;;;;27.02;14.77;;;;;;;8.95;66.85;100122.72;5031297;28;20050;-77
2021/11/22 07:56:07;;;;;;;24.13;14.75;;;;;;;8.94;66.99;100115.75;5027867;28;20072;-71
2021/11/22 07:58:35;;;;;;;25.75;13.75;;;;;;;9.04;66.84;100117.75;5026014;28;20136;-73
2021/11/22 08:01:03;;;;;;;29.35;16.00;;;;;;;9.08;66.66;100114.81;5025183;28;20084;-74
2021/11/22 08:03:31;;;;;;;31.27;21.17;;;;;;;8.84;66.09;100122.59;5026863;28;20049;-75
2021/11/22 08:05:59;;;;;;;30.38;18.92;;;;;;;8.75;66.38;100124.06;5026169;28;20049;-74
2021/11/22 08:08:29;;;;;;;39.60;20.27;;;;;;;8.76;66.12;100130.16;5026397;28;20089;-73
2021/11/22 08:11:06;;;;;;;31.92;18.90;;;;;;;8.82;66.16;100144.69;5024430;28;20111;-75
2021/11/22 08:13:34;;;;;;;27.45;16.05;;;;;;;8.90;66.07;100137.97;5027286;28;20141;-77
2021/11/22 08:16:05;;;;;;;32.42;21.40;;;;;;;8.90;65.93;100155.56;5024670;28;20049;-77
2021/11/22 08:18:36;;;;;;;36.30;19.42;;;;;;;8.84;65.73;100158.59;5025403;28;20645;-71
2021/11/22 08:21:05;;;;;;;38.35;19.92;;;;;;;8.82;65.81;100158.69;5026540;28;20045;-73
2021/11/22 08:23:36;;;;;;;41.95;24.77;;;;;;;8.73;65.88;100159.31;5025176;28;20523;-72
2021/11/22 08:26:05;;;;;;;32.72;20.15;;;;;;;8.56;65.93;100160.44;5007638;28;20046;-73
2021/11/22 08:28:32;;;;;;;36.00;22.38;;;;;;;8.53;66.01;100164.09;5024744;28;20162;-71
2021/11/22 08:31:03;;;;;;;34.05;20.95;;;;;;;8.46;66.12;100164.59;5025152;28;20045;-72
2021/11/22 08:33:30;;;;;;;35.40;21.85;;;;;;;8.40;66.18;100171.09;5023397;28;20073;-72
2021/11/22 08:35:59;;;;;;;31.08;20.23;;;;;;;8.31;66.46;100169.88;5024299;28;20073;-73
2021/11/22 08:38:26;;;;;;;31.23;22.02;;;;;;;8.23;66.42;100177.44;5025327;28;20064;-74
2021/11/22 08:40:53;;;;;;;27.27;19.50;;;;;;;8.14;66.63;100181.50;5022625;28;20080;-74
2021/11/22 08:43:20;;;;;;;34.78;22.63;;;;;;;8.17;66.52;100183.09;5023387;28;20183;-72
2021/11/22 08:45:48;;;;;;;34.25;21.40;;;;;;;8.22;66.66;100188.91;5022777;28;20046;-72
2021/11/22 08:48:18;;;;;;;34.63;21.17;;;;;;;8.29;66.67;100197.25;5024528;28;20593;-71
2021/11/22 08:50:45;;;;;;;42.53;24.88;;;;;;;8.35;66.59;100196.84;5025153;28;20175;-75
2021/11/22 08:53:13;;;;;;;40.78;22.33;;;;;;;8.30;66.72;100193.66;5023377;28;20065;-74
2021/11/22 08:55:41;;;;;;;36.75;22.45;;;;;;;8.37;66.64;100194.97;5007757;28;20670;-72
2021/11/22 08:58:08;;;;;;;33.85;21.65;;;;;;;8.39;66.59;100198.34;5027837;28;20141;-73
2021/11/22 09:00:38;;;;;;;39.28;23.48;;;;;;;8.44;66.59;100195.44;5027803;28;20046;-73
2021/11/22 09:03:05;;;;;;;37.15;21.02;;;;;;;8.46;66.34;100197.03;5028657;28;20711;-72
2021/11/22 09:05:33;;;;;;;37.80;22.50;;;;;;;8.57;66.11;100204.22;5028464;28;20049;-73
2021/11/22 09:08:00;;;;;;;37.58;21.83;;;;;;;8.61;65.91;100203.94;5024910;28;20049;-75
2021/11/22 09:10:29;;;;;;;44.55;29.67;;;;;;;8.69;66.03;100206.06;5021339;28;20049;-72
2021/11/22 09:12:57;;;;;;;37.33;24.05;;;;;;;8.67;65.85;100204.50;5023660;28;20568;-72
2021/11/22 09:15:24;;;;;;;36.88;22.67;;;;;;;8.72;65.72;100210.31;5025332;28;20041;-74
2021/11/22 09:17:51;;;;;;;33.40;20.65;;;;;;;8.80;65.71;100213.28;5028865;28;20644;-72
2021/11/22 09:20:18;;;;;;;31.23;18.77;;;;;;;8.82;65.51;100214.00;5028167;28;20069;-72
2021/11/22 09:22:46;;;;;;;35.22;21.98;;;;;;;8.96;65.46;100210.47;5028908;28;20664;-71
2021/11/22 09:25:13;;;;;;;34.25;24.52;;;;;;;9.09;65.28;100213.13;5029893;28;20132;-73
2021/11/22 09:27:41;;;;;;;37.42;22.25;;;;;;;9.13;65.12;100212.00;5030745;28;20077;-71
2021/11/22 09:30:11;;;;;;;32.72;23.25;;;;;;;9.21;64.97;100212.31;5026022;28;20156;-74
2021/11/22 09:32:38;;;;;;;32.65;21.63;;;;;;;9.27;64.61;100213.69;5006632;28;20524;-71
2021/11/22 09:35:06;;;;;;;29.52;19.88;;;;;;;9.30;64.08;100203.78;5024945;28;20057;-71
2021/11/22 09:37:34;;;;;;;31.05;20.23;;;;;;;9.27;63.74;100206.59;5024667;28;20765;-71
2021/11/22 09:40:01;;;;;;;31.63;19.45;;;;;;;9.24;64.03;100203.34;5020990;28;20050;-73
2021/11/22 09:42:28;;;;;;;27.13;20.38;;;;;;;9.24;63.78;100206.84;5023079;28;20045;-72
2021/11/22 09:44:56;;;;;;;29.92;20.65;;;;;;;9.23;63.53;100210.41;5021580;28;20084;-74
2021/11/22 09:47:24;;;;;;;32.53;20.85;;;;;;;9.26;63.30;100210.22;5023023;28;20629;-72
2021/11/22 09:49:54;;;;;;;29.38;20.35;;;;;;;9.43;63.32;100213.47;5023832;28;20056;-77
2021/11/22 09:52:21;;;;;;;24.13;16.90;;;;;;;9.38;62.76;100214.66;5022970;28;20174;-69
2021/11/22 09:54:49;;;;;;;27.73;19.67;;;;;;;9.28;63.18;100208.31;5023340;28;20509;-72
2021/11/22 09:57:16;;;;;;;27.38;19.63;;;;;;;9.28;63.05;100212.75;5022690;28;20049;-72
2021/11/22 09:59:44;;;;;;;24.98;17.33;;;;;;;9.43;62.99;100219.59;5020661;28;20148;-71
2021/11/22 10:02:13;;;;;;;21.60;15.20;;;;;;;9.42;62.53;100220.56;5022370;28;20675;-71
2021/11/22 10:04:40;;;;;;;28.40;17.73;;;;;;;9.33;62.06;100224.66;5023449;28;20081;-71
2021/11/22 10:07:09;;;;;;;21.58;14.77;;;;;;;9.38;62.44;100217.28;5024703;28;20520;-71
2021/11/22 10:09:46;;;;;;;22.38;16.73;;;;;;;9.37;62.46;100218.22;5023794;28;20059;-71
2021/11/22 10:12:18;;;;;;;26.88;18.98;;;;;;;9.35;62.85;100222.75;5005985;28;20056;-73
2021/11/22 10:14:49;;;;;;;30.60;19.42;;;;;;;9.30;63.38;100224.84;5024902;28;20057;-73
2021/11/22 10:17:34;;;;;;;26.90;17.42;;;;;;;9.25;63.55;100224.31;5024649;28;20068;-71
2021/11/22 10:20:13;;;;;;;25.95;15.90;;;;;;;9.18;63.07;100223.03;5004997;28;20084;-77
2021/11/22 10:22:44;;;;;;;24.10;14.07;;;;;;;9.09;62.95;100226.28;5035579;28;20465;-75
2021/11/22 10:25:20;;;;;;;23.25;14.95;;;;;;;9.13;63.45;100230.44;5023818;28;20053;-75
2021/11/22 10:27:49;;;;;;;17.83;13.10;;;;;;;9.03;62.98;100227.56;5023464;28;20144;-71
2021/11/22 10:30:24;;;;;;;15.80;11.25;;;;;;;9.04;63.07;100226.63;5030147;28;20127;-73
2021/11/22 10:32:56;;;;;;;17.15;13.20;;;;;;;9.09;63.08;100228.94;5027970;28;20455;-70
2021/11/22 10:35:25;;;;;;;17.80;13.23;;;;;;;9.16;63.02;100236.34;5029193;28;20051;-71
2021/11/22 10:38:00;;;;;;;19.50;12.25;;;;;;;9.21;62.86;100236.03;5033196;28;20049;-77
2021/11/22 10:40:29;;;;;;;19.45;14.18;;;;;;;9.28;62.75;100236.47;5027786;28;20041;-72
2021/11/22 10:42:57;;;;;;;19.63;12.27;;;;;;;9.28;62.69;100234.66;5029239;28;20045;-74
2021/11/22 10:45:27;;;;;;;20.10;14.90;;;;;;;9.38;62.84;100246.28;5036554;28;20041;-72
2021/11/22 10:48:25;;;;;;;19.77;13.60;;;;;;;9.41;62.82;100244.38;5029459;28;20496;-76
2021/11/22 10:51:06;;;;;;;22.98;18.50;;;;;;;9.23;62.34;100242.03;5026305;28;20613;-72
2021/11/22 10:53:38;;;;;;;22.25;17.00;;;;;;;9.11;63.02;100242.84;5025400;28;20080;-70
2021/11/22 10:56:08;;;;;;;24.80;18.38;;;;;;;8.99;63.21;100250.63;5031809;28;20071;-74
2021/11/22 10:58:56;;;;;;;23.13;16.88;;;;;;;8.93;62.91;100255.44;5036083;28;20045;-70
2021/11/22 11:01:44;;;;;;;24.35;20.55;;;;;;;8.90;62.95;100256.50;5029574;28;20104;-70
2021/11/22 11:04:18;;;;;;;26.85;16.35;;;;;;;8.91;63.65;100259.97;5012591;28;20168;-73
2021/11/22 11:07:06;;;;;;;24.40;17.30;;;;;;;8.86;63.61;100255.03;5037042;28;20150;-70
2021/11/22 11:09:35;;;;;;;24.40;15.40;;;;;;;8.89;63.77;100260.06;4959463;28;20057;-70
2021/11/22 11:12:07;;;;;;;25.65;17.30;;;;;;;9.04;63.82;100263.50;4960968;28;20047;-71
2021/11/22 11:14:38;;;;;;;23.83;16.35;;;;;;;9.00;63.15;100262.00;4958877;28;20503;-71
2021/11/22 11:17:13;;;;;;;21.55;17.05;;;;;;;9.01;63.30;100260.22;4966382;28;20359;-72
2021/11/22 11:19:43;;;;;;;21.63;16.23;;;;;;;8.95;63.36;100270.22;4963329;28;20127;-71
2021/11/22 11:22:10;;;;;;;22.45;16.90;;;;;;;8.92;63.44;100267.78;4962796;28;20574;-75
2021/11/22 11:24:37;;;;;;;21.15;17.17;;;;;;;8.88;63.93;100270.72;4959304;28;20073;-71
2021/11/22 11:27:05;;;;;;;23.23;18.55;;;;;;;8.86;64.01;100269.97;4959108;28;20043;-73
2021/11/22 11:29:34;;;;;;;25.33;18.33;;;;;;;8.89;63.97;100272.41;4960179;28;20130;-73